Latest Coastal Weather Observations for Albany Airport

IDW60701

Issued at 9:02 am WST Sunday 29 March 2015 (issued every 10 minutes, with the page automatically refreshed every 10 minutes)

About coastal observations | Map of coastal stations | Coastal observations for WA | Marine services | Other Formats
Station Details ID: 009999 Name: ALBANY AIRPORT Lat: -34.94 Lon: 117.82 Height: 68.4 m
Data from the previous 72 hours. | See also: Recent months at Albany Airport
Date/Time
WST
Temp

°C
Wind Pressure Rain
since 9am
mm
Weather Cloud Vis
km
Sea
Height
m
Swell
Dir
 
Speed
knots
Gust
knots
hPa Trend Height
m
Period
s
Dir
29/08:30am 17.8 WNW 6 8 1022.4 - 0.0 - Partly cloudy 10 - - - -
29/08:00am 17.5 WNW 6 8 1022.3 - 0.0 - Partly cloudy 10 - - - -
29/07:30am 17.0 WNW 7 8 1022.2 - 0.0 - Partly cloudy 10 - - - -
29/07:00am 16.0 NW 6 7 1022.1 - 0.0 - Mostly clear 10 - - - -
29/06:30am 15.8 NNW 3 5 1022.2 - 0.0 - Mostly clear 10 - - - -
29/06:00am 15.9 NNW 4 5 1022.0 R 0.0 Fine Mostly cloudy 25 - - - -
29/05:30am 15.6 NNW 4 4 1021.7 - 0.0 - Cloudy 10 - - - -
29/05:00am 16.5 W 4 5 1021.6 - 0.0 - Cloudy 10 - - - -
29/04:30am 16.4 W 4 5 1021.2 - 0.0 - Partly cloudy 10 - - - -
29/04:00am 16.6 W 5 7 1021.1 - 0.0 - Partly cloudy 10 - - - -
29/03:30am 16.6 NNW 3 4 1021.0 - 0.0 - Partly cloudy 10 - - - -
29/03:00am 16.3 N 4 5 1020.8 - 0.0 - Cloudy 10 - - - -
29/02:30am 16.2 N 4 5 1020.8 - 0.0 - Cloudy 10 - - - -
29/02:00am 16.3 CALM 0 0 1020.9 - 0.0 - Partly cloudy 10 - - - -
29/01:30am 16.4 NNW 1 3 1021.0 - 0.0 - Cloudy 10 - - - -
29/01:00am 16.3 N 4 4 1021.2 - 0.0 - Cloudy 10 - - - -
29/12:30am 16.1 N 3 5 1021.1 - 0.0 - Cloudy 10 - - - -
29/12:00am 16.3 N 5 6 1021.1 - 0.0 - Cloudy 10 - - - -
 
Date/Time
WST
Temp

°C
Wind Pressure Rain
since 9am
mm
Weather Cloud Vis
km
Sea
Height
m
Swell
Dir
 
Speed
knots
Gust
knots
hPa Trend Height
m
Period
s
Dir
28/11:30pm 15.1 N 4 4 1021.2 - 0.0 - Cloudy 10 - - - -
28/11:08pm 15.3 N 4 5 1021.3 - 0.0 - Cloudy 10 - - - -
28/11:00pm 15.2 NNW 2 4 1021.3 - 0.0 - Cloudy 10 - - - -
28/10:30pm 14.6 CALM 0 0 1021.3 - 0.0 - - 0.8 - - - -
28/10:21pm 15.3 CALM 0 0 1021.3 - 0.0 - Partly cloudy 5 - - - -
28/10:00pm 15.9 WNW 1 3 1021.4 - 0.0 - Partly cloudy 10 - - - -
28/09:30pm 16.4 CALM 0 0 1021.5 - 0.0 - Partly cloudy 10 - - - -
28/09:00pm 15.9 CALM 0 3 1021.6 - 0.0 - Mostly cloudy 10 - - - -
28/08:30pm 16.9 SSW 4 6 1021.3 - 0.0 - Partly cloudy 10 - - - -
28/08:00pm 17.1 SSW 5 6 1021.0 - 0.0 - Partly cloudy 10 - - - -
28/07:30pm 17.3 SW 6 8 1020.7 - 0.0 - - 10 - - - -
28/07:00pm 17.8 SW 8 11 1020.3 - 0.0 - - 10 - - - -
28/06:30pm 18.4 SW 9 12 1020.0 - 0.0 - - 10 - - - -
28/06:00pm 19.4 SW 7 9 1019.8 - 0.0 - - 10 - - - -
28/05:30pm 20.6 SW 9 11 1019.7 - 0.0 - - 10 - - - -
28/05:00pm 20.8 SW 11 15 1019.6 - 0.0 - Partly cloudy 10 - - - -
28/04:30pm 22.5 SW 8 13 1019.3 - 0.0 - Partly cloudy 10 - - - -
28/04:00pm 22.4 SW 9 13 1019.4 - 0.0 - - 10 - - - -
28/03:30pm 23.1 WSW 10 14 1019.2 - 0.0 - Mostly clear 10 - - - -
28/03:00pm 23.3 SW 9 15 1019.1 S 0.0 Fine Mostly clear 30 - - - -
28/02:30pm 23.1 SW 10 15 1019.1 - 0.0 - Mostly clear 10 - - - -
28/02:00pm 23.0 SW 9 13 1019.2 - 0.0 - Mostly clear 10 - - - -
28/01:30pm 22.8 SW 8 14 1019.4 - 0.0 - Mostly clear 10 - - - -
28/01:00pm 22.4 SW 8 13 1019.8 - 0.0 - Mostly clear 10 - - - -
28/12:30pm 22.4 W 9 12 1020.1 - 0.0 - Mostly clear 10 - - - -
28/12:00pm 21.2 SW 9 13 1020.4 F 0.0 Fine Mostly cloudy 30 - - - -
28/11:30am 21.4 SW 11 15 1020.6 - 0.0 - Mostly clear 10 - - - -
28/11:00am 21.4 SW 10 13 1020.6 - 0.0 - Mostly clear 10 - - - -
28/10:30am 21.4 W 7 11 1020.5 - 0.0 - Mostly clear 10 - - - -
28/10:00am 20.4 W 8 11 1020.6 - 0.0 - Mostly clear 10 - - - -
28/09:30am 19.6 W 8 12 1020.7 - 0.0 - Mostly clear 10 - - - -
28/09:00am 19.3 W 6 9 1020.7 F 0.0 Fine Mostly cloudy 30 - - - -
28/08:30am 18.8 W 7 11 1020.8 - 0.0 - Mostly clear 10 - - - -
28/08:00am 17.9 WNW 6 8 1020.7 - 0.0 - Mostly clear 10 - - - -
28/07:30am 16.7 W 5 6 1020.6 - 0.0 - Mostly clear 10 - - - -
28/07:00am 15.9 W 6 8 1020.7 - 0.0 - Mostly clear 10 - - - -
28/06:30am 15.6 W 6 7 1020.2 - 0.0 - Mostly clear 10 - - - -
28/06:00am 16.7 W 6 9 1020.0 R 0.0 Fine Mostly cloudy 25 - - - -
28/05:30am 16.9 W 7 9 1019.8 - 0.0 - Cloudy 10 - - - -
28/05:00am 17.0 W 8 10 1019.5 - 0.0 - Cloudy 10 - - - -
28/04:30am 17.1 W 6 9 1019.2 - 0.0 - Partly cloudy 10 - - - -
28/04:00am 16.9 WNW 6 8 1019.1 - 0.0 - Cloudy 9 - - - -
28/03:30am 17.0 W 6 7 1018.9 - 0.0 - Cloudy 10 - - - -
28/03:00am 16.9 WNW 6 8 1018.9 - 0.0 - Cloudy 10 - - - -
28/02:30am 16.8 WNW 7 8 1018.9 - 0.0 - Cloudy 10 - - - -
28/02:00am 16.9 W 7 8 1019.1 - 0.0 - Cloudy 10 - - - -
28/01:30am 16.6 WNW 5 6 1019.0 - 0.0 - Cloudy 10 - - - -
28/01:00am 16.5 NW 6 7 1019.3 - 0.0 - Partly cloudy 10 - - - -
28/12:30am 16.2 WNW 5 6 1019.3 - 0.0 - Partly cloudy 10 - - - -
28/12:00am 15.9 NW 6 6 1019.5 - 0.0 - Cloudy 10 - - - -
 
Date/Time
WST
Temp

°C
Wind Pressure Rain
since 9am
mm
Weather Cloud Vis
km
Sea
Height
m
Swell
Dir
 
Speed
knots
Gust
knots
hPa Trend Height
m
Period
s
Dir
27/11:30pm 14.6 WNW 4 5 1019.6 - 0.0 - Partly cloudy 10 - - - -
27/11:00pm 15.7 NW 5 6 1019.5 - 0.0 - Cloudy 10 - - - -
27/10:59pm 15.7 NW 5 6 1019.5 - 0.0 - Cloudy 10 - - - -
27/10:30pm 15.1 WNW 4 5 1019.7 - 0.0 - Partly cloudy 10 - - - -
27/10:00pm 14.3 N 5 6 1019.9 - 0.0 - Partly cloudy 10 - - - -
27/09:30pm 14.2 N 5 7 1019.9 - 0.0 - Partly cloudy 10 - - - -
27/09:12pm 14.4 N 5 5 1019.9 - 0.0 - Partly cloudy 10 - - - -
27/09:00pm 14.1 N 5 6 1019.9 - 0.0 - - 10 - - - -
27/08:30pm 13.9 CALM 0 3 1020.0 - 0.0 - - 10 - - - -
27/08:00pm 16.4 SW 5 6 1019.9 - 0.0 - - 10 - - - -
27/07:30pm 16.2 SSW 1 4 1019.7 - 0.0 - - 10 - - - -
27/07:00pm 17.0 CALM 0 0 1019.4 - 0.0 - - 10 - - - -
27/06:30pm 18.2 S 3 4 1019.2 - 0.0 - - 10 - - - -
27/06:00pm 19.8 SW 6 8 1019.0 - 0.0 - - 10 - - - -
27/05:30pm 21.0 SW 8 9 1019.0 - 0.0 - Mostly clear 10 - - - -
27/05:00pm 22.5 S 8 11 1018.8 - 0.0 - - 10 - - - -
27/04:30pm 23.7 SSW 9 12 1018.7 - 0.0 - - 10 - - - -
27/04:00pm 24.2 S 8 11 1018.6 - 0.0 - - 10 - - - -
27/03:30pm 25.0 SSW 8 11 1018.7 - 0.0 - - 10 - - - -
27/03:00pm 24.9 S 8 11 1018.7 F 0.0 Distant precip. Partly cloudy 25 - - - -
27/02:30pm 24.4 S 9 12 1019.0 - 0.0 - Partly cloudy 10 - - - -
27/02:00pm 25.1 WSW 6 15 1019.2 - 0.0 - Partly cloudy 10 - - - -
27/01:30pm 25.4 NNW 8 12 1019.3 - 0.0 - - 10 - - - -
27/01:00pm 25.2 WNW 9 13 1019.8 - 0.0 - Partly cloudy 10 - - - -
27/12:30pm 23.7 NW 9 11 1020.2 - 0.0 - - 10 - - - -
27/12:00pm 23.2 NW 7 9 1020.7 F 0.0 Haze Mostly cloudy 20 - - - -
27/11:30am 23.0 NW 8 11 1021.1 - 0.0 - Cloudy 10 - - - -
27/11:00am 23.3 NW 9 13 1021.2 - 0.0 - Partly cloudy 10 - - - -
27/10:30am 21.8 NNW 8 11 1021.5 - 0.0 - Partly cloudy 10 - - - -
27/10:00am 19.6 NNW 4 6 1021.8 - 0.0 - - 10 - - - -
27/09:30am 17.9 N 3 4 1021.9 - 0.0 - - 10 - - - -
27/09:00am 16.1 NNE 3 5 1021.9 F 0.0 Fine Mostly cloudy 25 - - - -
27/08:30am 14.7 CALM 0 3 1022.1 - 0.0 - - 10 - - - -
27/08:00am 14.4 ENE 3 4 1021.9 - 0.0 - - 10 - - - -
27/07:30am 13.8 ENE 3 4 1022.0 - 0.0 - - 10 - - - -
27/07:00am 13.3 NE 4 6 1022.1 - 0.0 - - 10 - - - -
27/06:30am 12.8 ENE 5 7 1022.0 - 0.0 - - 10 - - - -
27/06:00am 13.5 ENE 8 10 1021.9 F 0.0 Haze Mostly cloudy 20 - - - -
27/05:30am 13.8 ENE 8 11 1021.9 - 0.0 - - 10 - - - -
27/05:00am 14.0 ENE 9 11 1021.9 - 0.0 - - 10 - - - -
27/04:30am 14.2 ENE 10 11 1022.0 - 0.0 - - 10 - - - -
27/04:00am 14.1 ENE 8 10 1022.2 - 0.0 - - 10 - - - -
27/03:30am 14.2 ENE 7 9 1022.5 - 0.0 - - 10 - - - -
27/03:00am 14.5 ENE 9 11 1022.7 - 0.0 - - 10 - - - -
27/02:30am 14.4 E 7 9 1023.0 - 0.0 - - 10 - - - -
27/02:00am 14.3 ENE 7 8 1023.5 - 0.0 - - 10 - - - -
27/01:30am 14.6 ENE 6 8 1023.7 - 0.0 - - 10 - - - -
27/01:00am 14.6 ENE 7 9 1023.9 - 0.0 - - 10 - - - -
27/12:30am 15.0 ENE 8 10 1024.1 - 0.0 - - 10 - - - -
27/12:00am 15.3 ENE 9 12 1024.3 - 0.0 - - 10 - - - -
 
Date/Time
WST
Temp

°C
Wind Pressure Rain
since 9am
mm
Weather Cloud Vis
km
Sea
Height
m
Swell
Dir
 
Speed
knots
Gust
knots
hPa Trend Height
m
Period
s
Dir
26/11:30pm 15.6 ENE 10 12 1024.6 - 0.0 - - 10 - - - -
26/11:00pm 15.7 NE 9 12 1024.8 - 0.0 - - 10 - - - -
26/10:30pm 15.8 ENE 10 13 1024.9 - 0.0 - - 10 - - - -
26/10:00pm 15.6 ENE 9 11 1025.2 - 0.0 - - 10 - - - -
26/09:30pm 15.5 ENE 7 11 1025.2 - 0.0 - - 10 - - - -
26/09:00pm 15.4 ENE 9 11 1025.3 - 0.0 - - 10 - - - -
26/08:30pm 15.7 E 8 10 1025.1 - 0.0 - - 10 - - - -
26/08:00pm 16.2 ENE 11 17 1025.3 - 0.0 - - 10 - - - -
26/07:30pm 16.4 ENE 11 15 1025.3 - 0.0 - - 10 - - - -
26/07:00pm 16.5 E 11 17 1025.1 - 0.0 - - 10 - - - -
26/06:30pm 17.0 ENE 11 16 1025.0 - 0.0 - - 10 - - - -
26/06:00pm 17.5 E 13 16 1024.9 - 0.0 - - 10 - - - -
26/05:30pm 18.6 E 15 19 1024.5 - 0.0 - - 10 - - - -
26/05:00pm 19.7 E 15 19 1024.4 - 0.0 - - 10 - - - -
26/04:30pm 20.3 E 14 19 1024.4 - 0.0 - - 10 - - - -
26/04:00pm 21.0 E 14 20 1024.5 - 0.0 - - 10 - - - -
26/03:30pm 21.6 E 15 19 1024.5 - 0.0 - - 10 - - - -
26/03:00pm 22.0 ESE 14 18 1024.8 F 0.0 Smoke Mostly clear 15 - - - -
26/02:30pm 22.2 E 13 17 1025.0 - 0.0 - - 10 - - - -
26/02:00pm 22.1 E 13 18 1025.1 - 0.0 - - 10 - - - -
26/01:30pm 22.4 E 11 15 1025.6 - 0.0 - - 10 - - - -
26/01:00pm 23.3 E 11 16 1025.8 - 0.0 - - 10 - - - -
26/12:30pm 21.9 ENE 10 14 1026.3 - 0.0 - - 10 - - - -
26/12:00pm 22.2 NE 10 14 1026.9 F 0.0 Fine Mostly clear 30 - - - -
26/11:30am 21.5 ENE 13 17 1027.3 - 0.0 - - 10 - - - -
26/11:00am 20.3 ENE 11 15 1027.8 - 0.0 - - 10 - - - -
26/10:30am 19.7 ENE 13 16 1028.2 - 0.0 - - 10 - - - -
26/10:00am 18.4 NE 13 16 1028.6 - 0.0 - - 10 - - - -
26/09:30am 18.1 NE 14 18 1028.9 - 0.0 - - 10 - - - -

Other Formats:

Comma delimited format used in spreadsheet applications
http://www.bom.gov.au/fwo/IDW60701/IDW60701.94802.axf

JavaScript Object Notation format (JSON) in row-major order
http://www.bom.gov.au/fwo/IDW60701/IDW60701.94802.json